Time;durP1;ratioP1;P1;durP2;ratioP2;P2;SDS_P1;SDS_P2;PMS_P1;PMS_P2;Temp;Humidity;BMP_temperature;BMP_pressure;BME280_temperature;BME280_humidity;BME280_pressure;Samples;Min_cycle;Max_cycle;Signal;HPM_P1;HPM_P2
2023/07/28 00:00:38;;;;;;;7.35;2.60;;;;;;;18.53;100.00;99954.16;4974274;28;20225;-82
2023/07/28 00:03:04;;;;;;;14.70;4.88;;;;;;;18.51;100.00;99958.69;4963574;28;20236;-81
2023/07/28 00:05:31;;;;;;;6.15;2.17;;;;;;;18.53;100.00;99955.03;4965430;28;20260;-80
2023/07/28 00:07:58;;;;;;;9.00;2.92;;;;;;;18.62;100.00;99964.63;4961580;28;20237;-81
2023/07/28 00:10:25;;;;;;;5.13;1.85;;;;;;;18.63;100.00;99970.84;4963100;28;20233;-81
2023/07/28 00:12:51;;;;;;;4.95;1.80;;;;;;;18.57;100.00;99974.56;4966765;28;20248;-81
2023/07/28 00:15:18;;;;;;;5.22;1.85;;;;;;;18.53;100.00;99971.09;4961674;28;20232;-82
2023/07/28 00:17:45;;;;;;;3.88;1.50;;;;;;;18.60;100.00;99979.81;4960067;28;20240;-81
2023/07/28 00:20:12;;;;;;;10.05;2.97;;;;;;;18.65;100.00;99987.75;4953130;28;20225;-82
2023/07/28 00:22:38;;;;;;;4.90;1.92;;;;;;;18.59;100.00;99971.84;4965009;28;20769;-81
2023/07/28 00:25:05;;;;;;;36.97;7.82;;;;;;;18.62;100.00;99980.69;4961413;28;20229;-81
2023/07/28 00:27:32;;;;;;;7.15;2.40;;;;;;;18.60;100.00;99971.78;4968577;28;20225;-81
2023/07/28 00:29:59;;;;;;;9.13;3.03;;;;;;;18.65;100.00;99969.88;4965811;28;20300;-81
2023/07/28 00:32:25;;;;;;;5.20;1.83;;;;;;;18.63;100.00;99966.38;4963469;28;20220;-81
2023/07/28 00:34:53;;;;;;;5.22;1.98;;;;;;;18.65;100.00;99975.25;4964530;28;20239;-81
2023/07/28 00:37:19;;;;;;;6.28;2.22;;;;;;;18.65;100.00;99969.00;4961110;28;20238;-82
2023/07/28 00:39:46;;;;;;;4.55;1.67;;;;;;;18.61;100.00;99968.22;4962842;28;20236;-82
2023/07/28 00:42:13;;;;;;;5.65;1.95;;;;;;;18.59;100.00;99963.81;4965841;28;20267;-82
2023/07/28 00:44:39;;;;;;;6.18;2.13;;;;;;;18.58;100.00;99952.22;4958125;28;20241;-82
2023/07/28 00:47:06;;;;;;;18.17;4.78;;;;;;;18.59;100.00;99958.44;4964991;28;20229;-82
2023/07/28 00:49:33;;;;;;;4.45;1.80;;;;;;;18.59;100.00;99967.34;4965938;28;20256;-81
2023/07/28 00:52:00;;;;;;;36.17;8.80;;;;;;;18.60;100.00;99966.44;4962319;28;20240;-82
2023/07/28 00:54:27;;;;;;;3.92;1.60;;;;;;;18.58;100.00;99967.41;4956367;28;20232;-82
2023/07/28 00:56:54;;;;;;;5.25;2.03;;;;;;;18.61;100.00;99964.63;4958107;28;20231;-82
2023/07/28 00:59:21;;;;;;;6.30;2.10;;;;;;;18.61;100.00;99968.22;4959308;28;20722;-82
2023/07/28 01:01:50;;;;;;;4.05;1.67;;;;;;;18.60;100.00;99969.13;4964096;28;20233;-81
2023/07/28 01:04:17;;;;;;;4.75;1.85;;;;;;;18.62;100.00;99971.78;4956616;28;20265;-82
2023/07/28 01:06:54;;;;;;;4.65;1.73;;;;;;;18.61;100.00;99970.00;4967473;28;20231;-81
2023/07/28 01:09:24;;;;;;;4.43;1.67;;;;;;;18.65;100.00;99975.25;4963425;28;20235;-83
2023/07/28 01:11:58;;;;;;;4.47;1.83;;;;;;;18.62;100.00;99975.34;4965633;28;20221;-84
2023/07/28 01:14:25;;;;;;;5.13;1.92;;;;;;;18.59;100.00;99977.19;4961752;28;20243;-84
2023/07/28 01:16:52;;;;;;;4.25;1.58;;;;;;;18.59;100.00;99969.16;4961386;28;20244;-84
2023/07/28 01:19:20;;;;;;;4.03;1.60;;;;;;;18.61;100.00;99975.34;4959681;28;20247;-82
2023/07/28 01:21:54;;;;;;;4.68;1.80;;;;;;;18.64;100.00;99957.41;4967087;28;20313;-82
2023/07/28 01:24:39;;;;;;;5.15;1.95;;;;;;;18.67;100.00;99968.03;4960205;28;20252;-81
2023/07/28 01:27:07;;;;;;;31.77;6.30;;;;;;;18.58;100.00;99964.72;4956889;28;20811;-81
2023/07/28 01:29:34;;;;;;;5.28;1.98;;;;;;;18.53;100.00;99955.03;4968592;28;20582;-83
2023/07/28 01:32:01;;;;;;;43.10;10.20;;;;;;;18.52;100.00;99961.31;4961197;28;20229;-80
2023/07/28 01:34:28;;;;;;;5.50;2.08;;;;;;;18.52;100.00;99960.44;4975968;28;20229;-81
2023/07/28 01:36:54;;;;;;;12.32;3.90;;;;;;;18.53;100.00;99962.19;4967191;28;20231;-82
2023/07/28 01:39:24;;;;;;;8.35;2.80;;;;;;;18.54;100.00;99963.94;4955791;28;20316;-81
2023/07/28 01:41:51;;;;;;;4.75;1.73;;;;;;;18.51;100.00;99969.41;4958257;28;20300;-82
2023/07/28 01:44:18;;;;;;;5.88;2.10;;;;;;;18.48;100.00;99967.69;4952565;28;20239;-82
2023/07/28 01:46:44;;;;;;;7.93;2.63;;;;;;;18.48;100.00;99974.84;4975854;28;20237;-82
2023/07/28 01:49:11;;;;;;;34.90;7.35;;;;;;;18.49;100.00;99971.25;4953278;28;20228;-82
2023/07/28 01:51:39;;;;;;;5.15;2.15;;;;;;;18.47;100.00;99976.66;4962767;28;20297;-82
2023/07/28 01:54:06;;;;;;;34.67;8.13;;;;;;;18.46;100.00;99984.72;4955938;28;20234;-82
2023/07/28 01:56:32;;;;;;;10.05;3.65;;;;;;;18.44;100.00;99986.56;4960249;28;20237;-80
2023/07/28 01:59:00;;;;;;;26.88;6.63;;;;;;;18.44;100.00;99978.53;4955797;28;20228;-81
2023/07/28 02:01:29;;;;;;;5.43;2.10;;;;;;;18.47;100.00;99983.81;4958478;28;20616;-81
2023/07/28 02:03:56;;;;;;;21.77;5.38;;;;;;;18.48;100.00;99978.41;4952058;28;20240;-82
2023/07/28 02:06:22;;;;;;;5.80;1.90;;;;;;;18.49;100.00;99974.81;4957238;28;20263;-82
2023/07/28 02:08:49;;;;;;;6.03;2.28;;;;;;;18.53;100.00;99981.81;4964601;28;20229;-82
2023/07/28 02:11:16;;;;;;;6.95;2.55;;;;;;;18.62;100.00;99990.53;4959509;28;20232;-82
2023/07/28 02:13:42;;;;;;;6.72;2.58;;;;;;;18.65;100.00;99987.75;4960910;28;20240;-82
2023/07/28 02:16:09;;;;;;;13.63;4.05;;;;;;;18.66;100.00;99984.16;4957005;28;20265;-81
2023/07/28 02:18:36;;;;;;;10.70;3.65;;;;;;;18.64;100.00;99983.31;4961768;28;20237;-81
2023/07/28 02:21:03;;;;;;;12.82;3.45;;;;;;;18.62;100.00;99971.78;4957961;28;20237;-80
2023/07/28 02:23:30;;;;;;;5.20;2.00;;;;;;;18.69;100.00;99966.19;4962786;28;20236;-83
2023/07/28 02:25:56;;;;;;;22.05;4.70;;;;;;;18.66;100.00;99960.91;4957451;28;20323;-81
2023/07/28 02:28:23;;;;;;;8.32;2.67;;;;;;;18.67;100.00;99961.78;4973776;23;20749;-75
2023/07/28 02:30:50;;;;;;;5.68;2.00;;;;;;;18.60;100.00;99957.53;4941270;28;20222;-76
2023/07/28 02:33:17;;;;;;;8.10;2.67;;;;;;;18.51;100.00;99954.22;4926627;28;20250;-77
2023/07/28 02:35:43;;;;;;;6.95;2.40;;;;;;;18.47;100.00;99954.34;4942249;28;20226;-76
2023/07/28 02:38:10;;;;;;;12.10;3.65;;;;;;;18.43;100.00;99952.69;4932269;28;20250;-76
2023/07/28 02:40:37;;;;;;;7.13;2.45;;;;;;;18.33;100.00;99964.59;4941612;28;20284;-75
2023/07/28 02:43:03;;;;;;;22.35;7.57;;;;;;;18.31;100.00;99955.75;4950289;23;20245;-82
2023/07/28 02:45:32;;;;;;;3.92;1.48;;;;;;;18.29;100.00;99957.59;4951261;28;20315;-82
2023/07/28 02:47:59;;;;;;;12.30;4.00;;;;;;;18.27;100.00;99967.47;4947386;28;20237;-83
2023/07/28 02:50:26;;;;;;;5.55;1.90;;;;;;;18.24;100.00;99963.06;4955274;28;20313;-83
2023/07/28 02:52:52;;;;;;;4.88;1.75;;;;;;;18.22;100.00;99971.16;4949353;28;20248;-82
2023/07/28 02:55:19;;;;;;;5.45;2.22;;;;;;;18.22;100.00;99978.31;4949831;28;20235;-83
2023/07/28 02:57:46;;;;;;;5.13;1.80;;;;;;;18.16;100.00;99976.66;4949447;28;20260;-82
2023/07/28 03:00:14;;;;;;;9.80;3.28;;;;;;;18.20;100.00;99988.16;4941451;28;20242;-82
2023/07/28 03:02:40;;;;;;;5.95;2.08;;;;;;;18.16;100.00;99989.16;4944425;28;20714;-82
2023/07/28 03:05:07;;;;;;;20.92;5.38;;;;;;;18.16;100.00;99994.50;4944329;28;20248;-83
2023/07/28 03:07:34;;;;;;;5.93;2.08;;;;;;;18.14;100.00;100002.59;4948816;28;20237;-82
2023/07/28 03:10:01;;;;;;;32.63;7.68;;;;;;;18.13;100.00;99999.94;4944601;28;20234;-82
2023/07/28 03:12:28;;;;;;;4.90;1.70;;;;;;;18.12;100.00;100008.91;4947549;28;20265;-82
2023/07/28 03:14:55;;;;;;;10.90;2.97;;;;;;;18.08;100.00;100010.78;4941442;28;20284;-81
2023/07/28 03:17:22;;;;;;;5.03;1.90;;;;;;;18.07;100.00;100011.72;4947923;28;20233;-80
2023/07/28 03:19:48;;;;;;;6.28;2.13;;;;;;;18.04;100.00;100013.59;4956542;28;20244;-82
2023/07/28 03:22:15;;;;;;;8.75;2.67;;;;;;;18.02;100.00;100008.28;4951269;28;20337;-83
2023/07/28 03:24:42;;;;;;;5.50;1.98;;;;;;;17.99;100.00;100008.38;4955393;28;20232;-82
2023/07/28 03:27:09;;;;;;;31.30;6.15;;;;;;;17.97;100.00;99998.63;4951275;28;20238;-81
2023/07/28 03:29:36;;;;;;;4.53;1.73;;;;;;;17.94;100.00;100004.06;4953728;28;20229;-82
2023/07/28 03:32:03;;;;;;;32.22;7.60;;;;;;;17.95;100.00;100008.50;4950729;28;20237;-82
2023/07/28 03:34:29;;;;;;;4.97;1.77;;;;;;;17.93;100.00;100021.91;4955776;28;20229;-82
2023/07/28 03:36:56;;;;;;;14.80;4.28;;;;;;;17.95;100.00;100027.22;4947772;28;20256;-83
2023/07/28 03:39:23;;;;;;;5.43;2.00;;;;;;;17.98;100.00;100043.19;4957483;28;20233;-81
2023/07/28 03:41:50;;;;;;;5.07;1.80;;;;;;;17.98;100.00;100048.53;4954433;28;20230;-82
2023/07/28 03:44:16;;;;;;;5.43;1.85;;;;;;;17.95;100.00;100048.63;4946787;28;20254;-82
2023/07/28 03:46:43;;;;;;;5.00;2.05;;;;;;;17.95;100.00;100051.31;4953163;28;20237;-81
2023/07/28 03:49:10;;;;;;;36.20;8.82;;;;;;;17.93;100.00;100054.03;4950112;28;20226;-83
2023/07/28 03:51:37;;;;;;;5.45;2.03;;;;;;;17.96;100.00;100061.97;4952459;28;20230;-83
2023/07/28 03:54:03;;;;;;;26.23;5.70;;;;;;;17.95;100.00;100065.56;4949531;28;20625;-82
2023/07/28 03:56:30;;;;;;;5.45;2.00;;;;;;;17.93;100.00;100064.72;4954629;28;20229;-81
2023/07/28 03:58:57;;;;;;;27.08;6.68;;;;;;;17.94;100.00;100073.63;4952094;28;20228;-81
2023/07/28 04:01:24;;;;;;;3.28;1.27;;;;;;;17.95;100.00;100076.25;4952476;28;20234;-81
2023/07/28 04:03:50;;;;;;;7.75;2.67;;;;;;;18.00;100.00;100089.50;4953329;28;20226;-81
2023/07/28 04:06:17;;;;;;;5.10;2.00;;;;;;;18.03;100.00;100106.38;4947533;28;20240;-81
2023/07/28 04:08:45;;;;;;;5.35;2.00;;;;;;;18.04;100.00;100113.47;4942514;28;20225;-81
2023/07/28 04:11:12;;;;;;;27.88;6.07;;;;;;;18.08;100.00;100116.94;4958818;28;20744;-81
2023/07/28 04:13:38;;;;;;;5.63;2.05;;;;;;;18.06;100.00;100121.47;4953971;28;20320;-81
2023/07/28 04:16:05;;;;;;;29.70;7.18;;;;;;;18.07;100.00;100117.88;4951684;28;20325;-81
2023/07/28 04:18:32;;;;;;;5.60;2.00;;;;;;;18.09;100.00;100127.59;4956408;28;20253;-81
2023/07/28 04:20:59;;;;;;;32.03;6.28;;;;;;;18.08;100.00;100133.88;4950432;28;20228;-82
2023/07/28 04:23:25;;;;;;;5.78;2.13;;;;;;;18.12;100.00;100142.69;4950060;28;20234;-81
2023/07/28 04:25:52;;;;;;;3.95;1.38;;;;;;;18.15;100.00;100142.63;4944306;28;20273;-83
2023/07/28 04:28:19;;;;;;;5.65;1.90;;;;;;;18.20;100.00;100146.06;4946021;28;20248;-82
2023/07/28 04:30:46;;;;;;;5.95;2.05;;;;;;;18.22;100.00;100150.47;4951375;28;20238;-81
2023/07/28 04:33:13;;;;;;;4.78;1.85;;;;;;;18.24;100.00;100147.75;4939979;28;20253;-82
2023/07/28 04:35:40;;;;;;;4.88;1.92;;;;;;;18.27;100.00;100149.47;4949193;28;20320;-82
2023/07/28 04:38:07;;;;;;;36.97;7.72;;;;;;;18.30;100.00;100152.06;4942071;28;20234;-82
2023/07/28 04:40:34;;;;;;;5.22;2.00;;;;;;;18.32;100.00;100152.91;4954678;28;20705;-82
2023/07/28 04:43:00;;;;;;;38.50;8.68;;;;;;;18.32;100.00;100148.44;4941224;28;20253;-83
2023/07/28 04:45:27;;;;;;;4.88;1.77;;;;;;;18.34;100.00;100146.59;4929943;28;20233;-82
2023/07/28 04:47:54;;;;;;;8.90;3.05;;;;;;;18.31;100.00;100152.03;4942275;28;20236;-83
2023/07/28 04:50:21;;;;;;;5.00;1.90;;;;;;;18.35;100.00;100145.69;4940637;28;20230;-83
2023/07/28 04:52:48;;;;;;;6.13;2.13;;;;;;;18.38;100.00;100144.72;4947967;28;20235;-82
2023/07/28 04:55:15;;;;;;;9.10;3.05;;;;;;;18.37;100.00;100153.66;4940106;28;20225;-83
2023/07/28 04:57:41;;;;;;;5.07;1.92;;;;;;;18.41;100.00;100158.91;4946866;28;20230;-84
2023/07/28 05:00:09;;;;;;;23.27;5.95;;;;;;;18.49;100.00;100161.34;4942738;28;20229;-83
2023/07/28 05:02:37;;;;;;;6.88;2.28;;;;;;;18.44;100.00;100163.28;4952348;28;20230;-82
2023/07/28 05:05:04;;;;;;;31.92;6.88;;;;;;;18.43;100.00;100162.41;4943172;28;20249;-83
2023/07/28 05:07:31;;;;;;;6.10;1.95;;;;;;;18.47;100.00;100171.22;4947367;28;20261;-83
2023/07/28 05:09:58;;;;;;;31.63;6.95;;;;;;;18.47;100.00;100173.91;4936352;28;20228;-83
2023/07/28 05:12:24;;;;;;;7.45;2.53;;;;;;;18.47;100.00;100169.44;4946319;28;20241;-82
2023/07/28 05:14:51;;;;;;;5.55;1.92;;;;;;;18.49;100.00;100172.06;4939942;28;20226;-84
2023/07/28 05:17:18;;;;;;;8.95;3.20;;;;;;;18.50;100.00;100169.34;4942433;28;20264;-84
2023/07/28 05:19:45;;;;;;;4.60;1.60;;;;;;;18.49;100.00;100166.72;4941092;28;20228;-83
2023/07/28 05:22:11;;;;;;;35.58;7.20;;;;;;;18.48;100.00;100165.84;4942376;28;20232;-84
2023/07/28 05:24:38;;;;;;;5.72;2.03;;;;;;;18.45;100.00;100168.59;4945672;28;20694;-84
2023/07/28 05:27:05;;;;;;;39.58;8.57;;;;;;;18.46;100.00;100161.44;4940851;28;20237;-83
2023/07/28 05:29:32;;;;;;;5.88;2.22;;;;;;;18.53;100.00;100168.38;4941716;28;20294;-83
2023/07/28 05:31:59;;;;;;;32.33;8.77;;;;;;;18.53;100.00;100169.25;4934912;28;20229;-83
2023/07/28 05:34:26;;;;;;;4.55;1.70;;;;;;;18.53;100.00;100171.94;4937906;28;20251;-82
2023/07/28 05:36:53;;;;;;;5.43;2.03;;;;;;;18.51;100.00;100170.22;4937824;28;20242;-82
2023/07/28 05:39:20;;;;;;;4.28;1.65;;;;;;;18.52;100.00;100178.22;4946407;28;20237;-82
2023/07/28 05:41:46;;;;;;;8.02;2.58;;;;;;;18.52;100.00;100175.53;4946366;28;20244;-82
2023/07/28 05:44:13;;;;;;;6.22;2.13;;;;;;;18.52;100.00;100180.03;4943341;28;20246;-82
2023/07/28 05:46:40;;;;;;;5.32;1.95;;;;;;;18.55;100.00;100188.84;4946565;28;20230;-82
2023/07/28 05:49:08;;;;;;;36.22;7.88;;;;;;;18.57;100.00;100191.47;4940022;28;20249;-82
2023/07/28 05:51:35;;;;;;;5.63;1.95;;;;;;;18.55;100.00;100194.19;4941442;28;20233;-82
2023/07/28 05:54:02;;;;;;;32.88;7.13;;;;;;;18.58;100.00;100193.25;4942036;28;20244;-82
2023/07/28 05:56:29;;;;;;;5.05;1.83;;;;;;;18.65;100.00;100208.25;4946382;28;20233;-82
2023/07/28 05:58:56;;;;;;;11.90;3.58;;;;;;;18.65;100.00;100208.25;4942254;28;20229;-82
2023/07/28 06:01:25;;;;;;;6.22;2.28;;;;;;;18.69;100.00;100211.72;4939657;28;20253;-81
2023/07/28 06:03:55;;;;;;;5.57;1.92;;;;;;;18.74;100.00;100212.47;4945222;28;20236;-82
2023/07/28 06:06:22;;;;;;;4.85;1.80;;;;;;;18.79;100.00;100213.22;4943336;28;20638;-82
2023/07/28 06:08:49;;;;;;;6.15;2.13;;;;;;;18.79;100.00;100214.09;4947231;28;20253;-82
2023/07/28 06:11:16;;;;;;;6.47;2.08;;;;;;;18.81;100.00;100211.38;4943491;28;20239;-81
2023/07/28 06:13:43;;;;;;;5.80;2.20;;;;;;;18.85;100.00;100219.28;4945641;28;20234;-82
2023/07/28 06:16:09;;;;;;;37.08;7.75;;;;;;;18.88;100.00;100215.66;4943614;28;20264;-82
2023/07/28 06:18:36;;;;;;;5.13;1.90;;;;;;;18.88;100.00;100218.31;4948263;28;20225;-81
2023/07/28 06:21:03;;;;;;;14.10;4.57;;;;;;;18.89;100.00;100219.19;4942431;28;20245;-82
2023/07/28 06:23:30;;;;;;;6.05;2.00;;;;;;;18.91;100.00;100220.91;4947672;28;20252;-81
2023/07/28 06:25:56;;;;;;;8.85;2.88;;;;;;;18.93;100.00;100220.88;4942747;28;20241;-81
2023/07/28 06:28:23;;;;;;;5.25;1.88;;;;;;;18.94;100.00;100226.19;4949476;28;20314;-81
2023/07/28 06:30:57;;;;;;;6.38;2.22;;;;;;;18.98;100.00;100232.34;4953997;28;20248;-81
2023/07/28 06:33:25;;;;;;;6.25;2.20;;;;;;;19.02;100.00;100226.84;4943644;28;20267;-82
2023/07/28 06:35:52;;;;;;;5.07;1.83;;;;;;;19.05;100.00;100224.06;4949221;28;20230;-82
2023/07/28 06:38:19;;;;;;;5.55;1.92;;;;;;;19.11;100.00;100217.66;4939051;28;20237;-81
2023/07/28 06:40:45;;;;;;;5.30;1.88;;;;;;;19.11;100.00;100210.50;4939442;28;20245;-81
2023/07/28 06:43:12;;;;;;;15.95;4.35;;;;;;;19.10;100.00;100208.75;4940386;28;20226;-81
2023/07/28 06:45:39;;;;;;;6.32;2.38;;;;;;;19.14;100.00;100213.09;4941832;28;20225;-82
2023/07/28 06:48:06;;;;;;;37.15;8.30;;;;;;;19.16;100.00;100210.34;4937274;28;20233;-81
2023/07/28 06:50:33;;;;;;;6.10;2.05;;;;;;;19.22;100.00;100215.53;4943402;28;20226;-82
2023/07/28 06:52:59;;;;;;;31.45;6.85;;;;;;;19.26;100.00;100221.69;4937576;28;20237;-82
2023/07/28 06:55:26;;;;;;;8.57;2.88;;;;;;;19.25;100.00;100217.25;4939762;28;20237;-82
2023/07/28 06:57:53;;;;;;;6.88;2.33;;;;;;;19.28;100.00;100211.78;4941387;28;20233;-81
2023/07/28 07:00:20;;;;;;;5.80;2.00;;;;;;;19.26;100.00;100209.16;4942061;28;20225;-82
2023/07/28 07:02:46;;;;;;;6.70;2.22;;;;;;;19.27;100.00;100205.56;4943143;28;20248;-81
2023/07/28 07:05:13;;;;;;;6.15;2.13;;;;;;;19.26;100.00;100209.16;4940642;28;20254;-81
2023/07/28 07:07:40;;;;;;;7.85;2.45;;;;;;;19.35;100.00;100219.59;4921133;28;20236;-81
2023/07/28 07:10:08;;;;;;;14.52;4.50;;;;;;;19.36;100.00;100213.31;4942205;28;20225;-82
2023/07/28 07:12:36;;;;;;;8.05;2.85;;;;;;;19.42;100.00;100207.78;4943994;28;20297;-81
2023/07/28 07:15:04;;;;;;;34.28;8.25;;;;;;;19.49;100.00;100221.88;4938798;28;20220;-81
2023/07/28 07:17:31;;;;;;;7.38;2.55;;;;;;;19.52;100.00;100227.22;4942946;28;20237;-82
2023/07/28 07:19:58;;;;;;;14.82;4.82;;;;;;;19.64;100.00;100239.34;4937191;28;20230;-81
2023/07/28 07:22:25;;;;;;;6.85;2.45;;;;;;;19.65;100.00;100227.69;4946384;28;20703;-81
2023/07/28 07:24:52;;;;;;;6.10;2.05;;;;;;;19.60;100.00;100221.59;4940743;28;20541;-81
2023/07/28 07:27:19;;;;;;;6.40;2.15;;;;;;;19.62;100.00;100217.94;4939130;28;20232;-81
2023/07/28 07:29:46;;;;;;;6.57;2.13;;;;;;;19.58;100.00;100215.41;4945447;28;20226;-81
2023/07/28 07:32:15;;;;;;;9.55;3.00;;;;;;;19.60;100.00;100217.13;4946212;28;20249;-81
2023/07/28 07:34:42;;;;;;;5.55;1.83;;;;;;;19.81;100.00;100237.91;4943594;28;20245;-82
2023/07/28 07:37:09;;;;;;;18.13;5.60;;;;;;;19.95;100.00;100234.78;4942972;28;20241;-81
2023/07/28 07:39:36;;;;;;;8.52;2.70;;;;;;;20.13;100.00;100244.03;4939431;28;20225;-82
2023/07/28 07:42:03;;;;;;;19.27;5.70;;;;;;;20.19;100.00;100245.63;4930538;28;20229;-81
2023/07/28 07:44:29;;;;;;;6.10;1.95;;;;;;;20.34;100.00;100253.16;4941925;28;20233;-81
2023/07/28 07:47:00;;;;;;;10.25;3.13;;;;;;;20.39;100.00;100245.88;4940506;28;20244;-82
2023/07/28 07:49:27;;;;;;;8.40;2.58;;;;;;;20.64;100.00;100248.56;4942588;28;20238;-85
2023/07/28 07:51:53;;;;;;;8.77;2.70;;;;;;;20.70;100.00;100242.97;4938572;28;20228;-86
2023/07/28 07:54:20;;;;;;;8.32;2.90;;;;;;;20.86;100.00;100240.66;4942329;28;20241;-84
2023/07/28 07:56:47;;;;;;;6.10;2.10;;;;;;;20.99;100.00;100245.53;4934780;28;20232;-83
2023/07/28 07:59:14;;;;;;;11.07;3.50;;;;;;;21.19;100.00;100230.47;4932113;28;20296;-83
2023/07/28 08:01:41;;;;;;;9.93;3.28;;;;;;;21.06;100.00;100205.84;4936364;28;20232;-83
2023/07/28 08:04:08;;;;;;;40.85;10.48;;;;;;;21.17;100.00;100197.38;4929494;28;20236;-84
2023/07/28 08:06:35;;;;;;;9.45;3.03;;;;;;;21.42;100.00;100206.28;4931779;28;20251;-83
2023/07/28 08:09:01;;;;;;;39.38;8.27;;;;;;;21.68;100.00;100198.06;4939353;28;20218;-83
2023/07/28 08:11:28;;;;;;;6.38;2.20;;;;;;;21.86;100.00;100179.41;4943868;28;20232;-83
2023/07/28 08:13:55;;;;;;;14.27;4.10;;;;;;;21.84;100.00;100162.44;4951237;28;20296;-84
2023/07/28 08:16:22;;;;;;;7.78;2.65;;;;;;;21.95;100.00;100144.00;4942982;28;20743;-87
2023/07/28 08:18:55;;;;;;;7.38;2.30;;;;;;;21.99;100.00;100133.03;4941248;28;20253;-84
2023/07/28 08:21:22;;;;;;;6.65;2.17;;;;;;;22.38;100.00;100140.41;4937395;28;20252;-85
2023/07/28 08:23:49;;;;;;;6.30;2.20;;;;;;;22.36;100.00;100112.66;4938705;28;20321;-85
2023/07/28 08:26:16;;;;;;;10.23;2.88;;;;;;;22.35;100.00;100087.53;4934171;28;20738;-85
2023/07/28 08:28:42;;;;;;;7.75;2.45;;;;;;;22.51;100.00;100095.81;4939986;28;20320;-86
2023/07/28 08:31:09;;;;;;;44.67;10.18;;;;;;;22.92;100.00;100101.13;4939433;28;20221;-88
2023/07/28 08:33:36;;;;;;;6.50;2.20;;;;;;;22.78;100.00;100071.22;4937724;28;21005;-87
2023/07/28 08:36:03;;;;;;;35.05;8.07;;;;;;;22.41;100.00;100032.50;4937932;28;20254;-88
2023/07/28 08:38:30;;;;;;;6.82;2.47;;;;;;;22.42;100.00;100030.69;4941545;28;20253;-84
2023/07/28 08:40:58;;;;;;;28.25;6.57;;;;;;;22.49;100.00;100029.44;4935989;28;20225;-84
2023/07/28 08:43:25;;;;;;;5.72;2.05;;;;;;;22.67;100.00;100039.38;4942149;28;20237;-85
2023/07/28 08:45:53;;;;;;;6.97;2.42;;;;;;;22.53;100.00;100010.38;4933247;28;20225;-85
2023/07/28 08:48:20;;;;;;;10.70;3.53;;;;;;;22.49;100.00;100003.38;4953508;28;20229;-86
2023/07/28 08:50:47;;;;;;;8.70;2.97;;;;;;;22.56;100.00;99985.09;4936853;28;20260;-85
2023/07/28 08:53:14;;;;;;;11.18;3.67;;;;;;;22.74;100.00;100003.09;4934892;28;20244;-86
2023/07/28 08:55:41;;;;;;;8.05;2.80;;;;;;;23.11;100.00;100001.34;4942695;28;20236;-86
2023/07/28 08:58:16;;;;;;;46.40;10.00;;;;;;;23.09;100.00;99996.03;5026927;23;20232;-81
2023/07/28 09:00:43;;;;;;;8.35;2.80;;;;;;;23.23;100.00;99996.19;4942156;28;20234;-83
2023/07/28 09:03:11;;;;;;;23.17;6.82;;;;;;;23.24;100.00;99967.41;4935138;28;20239;-82
2023/07/28 09:05:40;;;;;;;10.70;3.50;;;;;;;23.03;100.00;99939.69;4939132;28;20319;-82
2023/07/28 09:08:07;;;;;;;30.25;7.53;;;;;;;23.08;100.00;99951.13;4929933;28;20244;-81
2023/07/28 09:10:44;;;;;;;9.40;3.33;;;;;;;22.92;100.00;99926.75;4920290;28;20243;-81
2023/07/28 09:13:12;;;;;;;27.15;6.45;;;;;;;23.08;100.00;99921.44;4932449;28;20232;-81
2023/07/28 09:15:43;;;;;;;9.90;3.08;;;;;;;23.04;100.00;99922.56;4930764;28;20241;-80
2023/07/28 09:18:16;;;;;;;17.27;5.28;;;;;;;22.91;100.00;99900.72;4932359;28;20312;-80
2023/07/28 09:20:44;;;;;;;8.75;3.00;;;;;;;22.95;100.00;99894.22;4936848;28;20249;-81
2023/07/28 09:23:15;;;;;;;12.43;3.75;;;;;;;23.05;100.00;99902.72;4937165;28;20607;-81
2023/07/28 09:25:41;;;;;;;8.73;2.75;;;;;;;23.10;100.00;99903.38;4941400;28;20237;-81
2023/07/28 09:28:08;;;;;;;44.42;12.18;;;;;;;22.97;100.00;99877.97;4924427;28;20244;-80
2023/07/28 09:30:49;;;;;;;7.07;2.33;;;;;;;22.99;100.00;99881.47;4935619;28;20222;-80
2023/07/28 09:33:30;;;;;;;10.02;3.20;;;;;;;23.24;100.00;99889.16;4930809;28;20252;-80
2023/07/28 09:35:57;;;;;;;14.30;4.40;;;;;;;23.00;100.00;99856.25;4934812;28;20239;-81
2023/07/28 09:38:27;;;;;;;5.70;1.98;;;;;;;22.93;100.00;99854.81;4949606;28;20234;-81
2023/07/28 09:40:54;;;;;;;7.85;2.50;;;;;;;23.10;100.00;99860.22;4953309;28;20237;-80
2023/07/28 09:43:20;;;;;;;8.55;2.80;;;;;;;23.03;100.00;99844.44;4936715;28;20259;-80
2023/07/28 09:45:48;;;;;;;7.90;2.47;;;;;;;23.43;100.00;99854.03;4942159;28;20229;-81
2023/07/28 09:48:17;;;;;;;8.60;2.70;;;;;;;23.34;100.00;99832.91;4933950;28;20237;-81
2023/07/28 09:50:44;;;;;;;8.80;2.90;;;;;;;23.17;100.00;99814.91;4953133;28;20225;-80
2023/07/28 09:53:12;;;;;;;16.05;4.55;;;;;;;23.23;100.00;99828.06;4931229;28;20733;-79
2023/07/28 09:55:42;;;;;;;10.30;3.20;;;;;;;23.09;100.00;99809.91;4935682;28;20690;-79
2023/07/28 09:58:11;;;;;;;15.35;4.47;;;;;;;22.87;100.00;99783.19;4934085;28;20231;-78
2023/07/28 10:00:38;;;;;;;8.38;2.80;;;;;;;23.02;100.00;99796.84;4936703;28;20231;-77
2023/07/28 10:03:05;;;;;;;15.18;4.75;;;;;;;23.01;100.00;99808.56;4931940;28;20322;-78
2023/07/28 10:05:34;;;;;;;7.55;2.58;;;;;;;23.02;100.00;99819.28;4920165;28;20241;-78
2023/07/28 10:08:01;;;;;;;13.25;4.68;;;;;;;22.94;100.00;99834.97;4928307;28;20239;-79
2023/07/28 10:10:28;;;;;;;9.15;2.92;;;;;;;23.05;100.00;99846.09;4934765;28;20237;-78
2023/07/28 10:12:57;;;;;;;8.45;2.67;;;;;;;23.01;100.00;99828.31;4935888;28;20244;-78
2023/07/28 10:15:32;;;;;;;7.95;2.75;;;;;;;22.77;100.00;99787.28;4934495;28;20254;-78
2023/07/28 10:17:59;;;;;;;14.90;4.80;;;;;;;22.86;100.00;99807.53;4930499;28;20239;-78
2023/07/28 10:20:32;;;;;;;10.60;3.50;;;;;;;23.05;100.00;99815.56;4936331;28;20292;-78
2023/07/28 10:23:21;;;;;;;12.45;3.88;;;;;;;23.05;100.00;99813.72;4927181;28;20229;-78
2023/07/28 10:25:58;;;;;;;11.40;3.50;;;;;;;23.17;100.00;99810.38;4934747;28;20236;-78
2023/07/28 10:28:31;;;;;;;7.95;2.40;;;;;;;23.01;100.00;99785.19;4933427;28;20236;-80
2023/07/28 10:30:59;;;;;;;17.02;5.07;;;;;;;23.05;100.00;99783.19;4929794;28;20575;-80
2023/07/28 10:33:40;;;;;;;9.85;3.25;;;;;;;22.94;100.00;99772.97;4935823;28;20234;-80
2023/07/28 10:36:16;;;;;;;12.57;3.85;;;;;;;22.78;100.00;99764.78;4927716;28;20317;-80
2023/07/28 10:38:43;;;;;;;7.78;2.38;;;;;;;22.86;100.00;99781.44;4938120;28;20228;-81
2023/07/28 10:41:14;;;;;;;21.02;5.75;;;;;;;22.78;100.00;99770.16;4939245;28;20303;-83
2023/07/28 10:43:42;;;;;;;10.63;3.20;;;;;;;22.90;100.00;99791.13;4937685;28;20236;-81
2023/07/28 10:46:11;;;;;;;19.92;6.15;;;;;;;23.08;100.00;99794.69;4931892;28;20241;-80
2023/07/28 10:48:43;;;;;;;10.77;3.13;;;;;;;23.30;100.00;99806.09;4936750;28;20232;-84
2023/07/28 10:51:11;;;;;;;26.20;6.45;;;;;;;23.14;100.00;99793.50;4911987;28;20272;-81
2023/07/28 10:53:38;;;;;;;8.15;2.58;;;;;;;23.26;100.00;99779.34;4939785;28;20225;-84
2023/07/28 10:56:08;;;;;;;57.00;13.60;;;;;;;23.10;100.00;99748.75;4938021;28;20220;-82
2023/07/28 10:58:39;;;;;;;10.13;2.90;;;;;;;23.03;100.00;99758.13;4938843;28;20240;-83
2023/07/28 11:01:09;;;;;;;58.28;14.60;;;;;;;22.87;100.00;99742.75;4934506;28;20717;-83
2023/07/28 11:03:36;;;;;;;10.70;3.03;;;;;;;22.68;100.00;99736.56;4930993;28;20272;-83
2023/07/28 11:06:04;;;;;;;59.53;14.05;;;;;;;22.68;100.00;99744.63;4911947;28;20229;-83
2023/07/28 11:08:32;;;;;;;7.70;2.50;;;;;;;22.64;100.00;99734.97;4925157;28;20231;-83
2023/07/28 11:10:58;;;;;;;43.80;9.95;;;;;;;22.71;100.00;99739.09;4943468;28;20231;-84
2023/07/28 11:13:27;;;;;;;7.53;2.35;;;;;;;22.82;100.00;99754.72;4944116;28;20602;-83
2023/07/28 11:16:07;;;;;;;45.22;9.75;;;;;;;22.82;100.00;99749.34;4945311;28;20239;-82
2023/07/28 11:18:34;;;;;;;9.10;3.03;;;;;;;22.75;100.00;99737.97;4942575;28;20240;-83